West Lafayette, IN (47906)

5:38 AM EDT on July 24, 2016 (GMT -0400)
Rural Otterbein | | Change Station
Active Advisory: Heat Advisory

Elev 689 ft 40.46 °N, 87.07 °W | Updated 21 seconds ago

Clear
Clear
71.4 °F
Feels Like 71.4 °F
N
1.3
Wind Variable Wind from East
Gusts 2.5 mph

Today
High -- | Low -- °F
--% Chance of Precip.
Yesterday
High -- | Low -- °F
Precip. -- in
Pressure 29.94 in
Visibility 10.0 miles
Clouds Clear
Dew Point 70 °F
Humidity 94%
Rainfall 0.00 in
Snow Depth Not available.
6:38 AM 9:10 PM
Waning Gibbous, 78% visible
METAR KLAF 240854Z AUTO 12004KT 10SM CLR 22/21 A2996 RMK AO2 SLP139 T02170206 58010
Pressure 29.94 in
Visibility 10.0 miles
Clouds Clear
Dew Point 70 °F
Humidity 94%
Rainfall 0.00 in
Snow Depth Not available.
6:38 AM 9:10 PM
Waning Gibbous, 78% visible
METAR KLAF 240854Z AUTO 12004KT 10SM CLR 22/21 A2996 RMK AO2 SLP139 T02170206 58010

10-Day Weather Forecast

Almanac

Astronomy

Jul. 24, 2016 Rise Set
Actual Time
Civil Twilight
Nautical Twilight
Astronomical Twilight
Moon
Length of Visible Light
Length of Day
Tomorrow will be .
, % of the Moon is Illuminated

Today's Extremes

State Highs State Lows

Community

WunderPhotos

Upload Photos

1,927,042 photos uploaded!

WunderBlog® & News

Nearby

Air Quality

  Air Quality AQ Index Pollutant
Not available.

Snow Depth

Station Depth Elevation

Earthquake Activity

City Distance Mag. Time & Date
Minimum magnitude displayed is 2.5.

Coastal Water Temperatures

Place Temperature

Stations

Nearby Weather Stations

Station Location Temp. Windchill Dew Point Humidity Wind Precip. Elev Updated Type
                   

Watches & Warnings

Heat Advisory
Issued: 3:22 AM EDT Jul. 24, 2016 – National Weather Service

... Heat advisory remains in effect until 8 PM EDT this evening...

* temperature... highs as warm as the low to middle 90s with dew
point tempertures in the middle 70s.

* Impacts... heat index values will approach 105 degrees across
the area Sunday afternoon.

Precautionary/preparedness actions...

A heat advisory means that a period of hot temperatures is
expected. The combination of hot temperatures and high humidity
will combine to create a situation in which heat illnesses are
possible. Drink plenty of fluids... stay in an air-conditioned
room... stay out of the sun... and check up on relatives and
neighbors.



Puma